8D3

Sisseton Municipal Airport

Sisseton, South Dakota, USA
METAR K8D3 192356Z AUTO 08006KT 16/12 A3003 RMK AO1 SLP166 60002 T01560117 10161 20133 53009
Observed Flight Rules
Sep-19 @ 23:56 UTC (45 minutes ago)
Wind
80° at 6 knots
Temperatures Readings
Current 16°C / 61°F
Dewpoint 12°C / 54°F
Humidity 77%
Altimeter 30.03" Hg
Pressure 1016.6 hPa
Elevation 354
METAR K8D3 192356Z AUTO 08006KT 16/12 A3003 RMK AO1 SLP166 60002 T01560117 10161 20133 53009
Observed Flight Rules
Sep-19 @ 23:56 UTC
(45 minutes ago)
Wind
80° at 6 knots
Temperature Dewpoint
16°C / 61°F 12°C / 54°F
Humidity Altimeter Pressure
77% 30.03" Hg 1016.6 hPa